Date,TemperatureHighF,TemperatureAvgF,TemperatureLowF,DewpointHighF,DewpointAvgF,DewpointLowF,HumidityHigh,HumidityAvg,HumidityLow,PressureMaxIn,PressureMinIn,WindSpeedMaxMPH,WindSpeedAvgMPH,GustSpeedMaxMPH,PrecipitationSumIn
2012-1-1,41.0,35.5,31.2,38.6,29.6,22.9,93,79,65,30.17,29.70,34,20,34,0.00
2012-1-2,24.3,22.4,21.2,17.7,14.0,10.7,83,70,58,30.43,30.19,24,14,32,0.00
2012-1-3,28.3,20.3,9.1,18.5,13.1,6.0,88,74,55,30.52,30.14,9,4,15,0.00
2012-1-4,44.2,37.1,26.7,30.5,27.1,21.5,90,68,56,30.13,29.97,11,6,15,0.00
2012-1-5,51.9,42.0,27.4,37.6,33.4,24.6,90,72,55,30.05,29.80,11,7,16,0.00
2012-1-6,56.3,47.9,32.7,40.1,36.8,29.8,90,67,53,29.80,29.71,10,6,18,0.00
2012-1-7,41.0,33.7,27.9,32.3,29.3,25.6,92,84,71,30.27,30.01,8,2,11,0.00
2012-1-8,42.1,36.4,24.0,32.4,29.1,23.0,98,76,59,30.41,30.31,2,0,6,0.00
2012-1-9,46.8,41.0,29.3,32.3,29.6,27.0,91,65,50,30.25,30.07,12,6,16,0.00
2012-1-10,52.0,40.9,30.2,36.1,32.8,27.6,90,74,54,30.13,29.89,8,2,11,0.00
2012-1-11,50.2,43.1,31.5,38.9,35.5,28.8,91,75,62,29.70,29.52,1,0,4,0.00
2012-1-12,30.3,20.8,15.5,28.8,18.9,12.9,95,92,89,29.67,29.50,17,11,23,0.00
2012-1-13,20.2,17.5,13.5,16.7,14.1,10.6,89,87,84,30.15,29.87,14,11,19,0.00
2012-1-14,20.9,15.7,8.6,14.2,10.8,6.0,90,81,71,30.27,30.16,1,0,3,0.00
2012-1-15,32.2,23.6,15.5,24.8,19.3,13.2,92,84,73,30.46,30.14,7,2,12,0.00
2012-1-16,48.9,43.1,35.3,46.4,39.1,30.4,93,86,80,29.96,29.75,11,6,18,0.00
2012-1-17,46.8,34.5,21.4,46.3,32.5,17.2,98,93,83,30.25,29.58,21,13,32,0.00
2012-1-18,27.9,20.7,10.6,21.8,15.9,8.0,90,82,71,30.38,29.97,8,3,14,0.00
2012-1-19,26.5,11.5,2.7,25.0,5.9,-3.8,94,78,62,30.25,29.96,14,5,20,0.00
2012-1-20,16.9,14.5,8.1,14.2,10.9,2.9,92,85,77,30.27,30.08,6,2,16,0.00
2012-1-21,24.4,19.4,12.2,15.6,12.7,8.2,86,75,64,30.31,30.19,8,2,13,0.00
2012-1-22,41.1,31.1,24.1,40.8,30.3,22.6,99,96,94,30.07,29.66,2,1,13,0.00
2012-1-23,46.2,35.9,32.0,45.1,33.3,27.1,96,90,82,29.98,29.43,20,14,29,0.00
2012-1-24,35.3,31.7,26.0,29.6,27.4,24.1,96,84,74,30.40,30.16,11,5,15,0.00
2012-1-25,34.3,30.6,24.9,30.9,28.5,23.9,97,92,83,30.39,30.11,2,0,5,0.00
2012-1-26,34.7,33.0,31.7,34.2,32.4,30.6,99,98,96,30.02,29.68,4,0,7,0.00
2012-1-27,41.2,36.5,32.3,33.8,31.6,28.7,98,83,62,30.04,29.89,9,3,14,0.00
2012-1-28,32.9,29.8,25.7,31.9,25.2,22.3,98,83,75,30.22,29.96,16,11,23,0.00
2012-1-29,32.6,29.9,24.8,27.9,25.7,22.3,90,84,78,30.32,30.07,17,11,25,0.00
2012-1-30,53.2,41.7,28.8,43.3,34.4,24.1,85,75,67,30.19,29.92,17,9,23,0.00
2012-1-31,58.2,53.1,42.3,50.9,46.8,36.4,94,79,72,29.96,29.84,19,12,26,0.00
2012-2-1,40.5,35.8,32.6,38.0,34.8,31.8,98,96,90,30.20,30.10,2,0,5,0.00
2012-2-2,45.9,37.8,31.6,41.5,36.5,31.4,99,95,83,30.38,30.19,3,0,7,0.00
2012-2-3,46.6,39.3,32.4,43.3,37.9,32.2,99,95,87,30.48,30.34,2,0,6,0.00
2012-2-4,38.9,37.1,33.1,37.9,36.0,31.9,98,96,93,30.35,30.16,4,1,14,0.00
2012-2-5,45.9,38.5,27.2,38.4,34.6,26.5,98,87,71,30.33,30.21,2,0,5,0.00
2012-2-6,31.4,30.5,28.5,30.7,29.6,28.0,98,96,93,30.28,30.20,5,3,8,0.00
2012-2-7,33.1,31.7,28.9,31.0,29.3,26.9,93,91,87,30.39,30.30,1,0,6,0.00
2012-2-8,32.0,29.0,22.7,28.0,25.4,20.2,92,86,77,30.42,30.37,8,3,11,0.00
2012-2-9,33.8,29.2,19.4,27.8,24.4,17.5,92,82,73,30.38,30.18,7,4,13,0.00
2012-2-10,35.2,29.8,18.0,33.2,27.6,14.0,96,91,84,30.15,29.94,15,9,22,0.00
2012-2-11,22.2,17.3,10.7,11.4,8.5,4.7,77,68,57,30.47,30.41,16,12,26,0.00
2012-2-12,31.4,23.3,16.5,19.6,14.9,9.1,82,70,61,30.46,30.33,15,9,21,0.00
2012-2-13,35.4,31.2,24.8,27.1,20.8,16.3,94,67,47,30.25,29.97,10,4,15,0.00
2012-2-14,35.6,33.1,29.8,33.0,31.1,28.8,96,92,90,30.08,29.90,4,3,7,0.00
2012-2-15,41.2,38.4,33.1,39.3,36.5,31.6,98,93,86,30.15,30.00,6,2,19,0.00
2012-2-16,44.9,38.7,30.2,40.0,35.6,27.4,99,89,74,30.19,30.00,12,6,21,0.00
2012-2-17,49.2,40.0,25.3,38.2,33.0,23.3,93,77,59,30.23,30.06,14,6,21,0.00
2012-2-18,40.4,35.2,29.2,30.6,26.3,22.7,93,70,56,30.25,30.19,6,1,20,0.00
2012-2-19,39.7,31.7,24.0,25.8,23.7,20.7,89,73,50,30.26,30.16,3,0,10,0.00
2012-2-20,43.2,36.7,22.2,29.3,27.4,21.2,96,70,53,30.35,29.99,2,1,7,0.00
2012-2-21,45.3,41.7,35.9,42.2,38.1,28.3,95,87,71,29.93,29.68,16,9,23,0.00
2012-2-22,49.7,39.8,31.9,38.8,34.3,30.3,95,81,62,29.68,29.43,8,1,12,0.00
2012-2-23,43.0,38.9,31.2,40.3,37.3,30.4,98,94,88,29.58,29.42,6,2,17,0.00
2012-2-24,36.2,32.1,26.4,32.6,28.3,21.4,97,86,76,30.04,29.44,21,15,29,0.00
2012-2-25,28.4,24.8,20.8,21.4,19.0,16.0,91,79,68,30.39,30.05,16,6,24,0.00
2012-2-26,51.8,43.0,27.4,33.0,29.9,21.2,78,61,46,30.31,30.06,18,8,35,0.00
2012-2-27,39.2,34.6,24.9,30.9,25.5,22.6,92,70,58,30.52,30.15,17,9,25,0.00
2012-2-28,52.2,40.3,25.7,38.6,30.1,23.8,93,69,41,30.49,29.94,3,1,7,0.00
2012-2-29,61.6,54.0,36.4,53.7,43.6,32.3,90,71,40,29.67,29.46,31,17,41,0.00
2012-3-1,44.1,38.2,34.7,34.9,32.8,31.7,89,81,68,29.91,29.78,8,4,14,0.00
2012-3-2,49.9,39.8,33.2,46.5,37.5,30.0,96,92,87,29.70,29.24,21,7,30,0.00
2012-3-3,33.5,31.7,30.3,29.9,26.2,24.9,87,80,72,29.90,29.69,16,10,25,0.00
2012-3-4,31.0,28.3,26.4,25.9,23.4,22.5,86,82,75,30.02,29.88,8,5,11,0.00
2012-3-5,38.1,31.3,19.5,25.8,23.1,17.3,92,72,57,30.43,30.30,7,3,14,0.00
2012-3-6,67.1,52.5,34.8,42.6,35.5,26.4,72,53,37,30.19,29.98,28,15,37,0.00
2012-3-7,67.7,61.7,50.9,53.1,46.7,34.0,73,58,51,30.07,29.86,28,18,38,0.00
2012-3-8,43.9,38.5,30.8,36.9,32.8,27.7,94,81,59,30.32,30.01,19,11,29,0.00
2012-3-9,41.3,35.5,27.0,25.2,17.9,11.3,85,50,30,30.56,30.44,18,8,25,0.00
2012-3-10,59.4,46.0,25.7,32.4,27.0,18.3,77,49,30,30.57,30.29,17,8,24,0.00
2012-3-11,68.6,59.2,38.7,42.2,35.5,28.3,68,43,27,30.32,30.12,12,7,19,0.00
2012-3-12,74.5,64.6,52.5,59.1,55.7,48.9,95,75,50,29.94,29.75,22,13,31,0.00
2012-3-13,73.2,62.4,42.6,52.3,44.7,40.3,97,57,32,30.12,30.06,4,2,8,0.00
2012-3-14,81.5,71.7,53.3,62.6,59.0,50.7,92,67,47,30.07,29.93,18,10,29,0.00
2012-3-15,83.3,72.8,61.8,64.5,61.4,57.6,92,69,44,30.03,29.93,14,8,21,0.00
2012-3-16,81.6,71.8,56.1,58.9,55.9,52.3,95,60,39,30.08,29.99,11,6,16,0.00
2012-3-17,80.6,71.3,55.4,62.1,59.8,54.3,96,69,47,30.10,29.96,7,2,13,0.00
2012-3-18,80.0,68.7,57.8,63.0,60.0,56.1,95,76,56,30.08,29.97,7,2,14,0.00
2012-3-19,80.0,72.1,62.0,63.5,61.1,58.7,89,70,52,30.02,29.89,11,4,15,0.00
2012-3-20,84.0,77.1,65.7,58.4,56.1,50.9,71,50,37,30.02,29.93,18,7,31,0.00
2012-3-21,85.3,77.3,67.2,59.3,56.4,53.0,69,50,34,30.09,29.98,15,5,20,0.00
2012-3-22,81.3,72.8,61.7,60.9,58.1,53.7,84,61,44,30.07,29.98,14,4,19,0.00
2012-3-23,68.7,61.7,51.5,62.6,58.5,50.1,97,90,67,29.94,29.77,3,0,11,0.00
2012-3-24,55.1,53.4,52.6,53.1,51.8,49.7,96,94,92,29.92,29.83,0,0,0,0.00
2012-3-25,72.5,62.6,52.2,59.7,56.0,49.6,98,80,58,30.08,30.00,3,1,9,0.00
2012-3-26,55.8,48.3,40.3,36.1,32.5,27.9,82,57,35,30.35,30.25,5,3,19,0.00
2012-3-27,73.2,59.7,38.0,51.0,39.8,23.8,65,49,38,30.24,29.86,14,7,24,0.00
2012-3-28,71.9,64.6,47.9,51.5,42.5,32.6,88,48,26,30.03,29.87,23,14,30,0.00
2012-3-29,57.9,49.5,40.8,41.8,39.0,36.6,88,68,51,30.14,29.97,4,2,13,0.00
2012-3-30,69.1,59.3,43.0,56.8,50.3,39.3,87,73,60,29.91,29.69,15,7,22,0.00
2012-3-31,58.7,48.7,40.6,46.1,41.8,37.9,91,78,59,29.99,29.86,3,1,10,0.00
2012-4-1,79.8,64.6,49.8,66.9,58.1,46.1,97,80,63,29.75,29.62,12,5,21,0.00
2012-4-2,70.9,62.2,48.9,46.7,44.7,42.6,86,54,39,29.90,29.83,7,4,24,0.00
2012-4-3,85.7,71.3,50.8,61.4,54.5,45.0,83,58,38,29.92,29.74,8,2,12,0.00
2012-4-4,66.5,56.1,43.9,47.3,39.1,27.4,89,56,26,29.92,29.83,6,3,14,0.00
2012-4-5,57.2,47.9,39.1,36.0,34.8,33.1,83,62,43,30.12,29.95,6,3,18,0.00
2012-4-6,61.6,53.8,32.7,35.4,29.4,25.2,88,42,25,30.32,30.21,5,2,16,0.00
2012-4-7,68.6,58.5,35.8,45.5,31.3,26.3,82,39,21,30.34,30.16,10,4,18,0.00
2012-4-8,66.5,54.6,41.0,42.8,31.7,21.4,96,47,19,30.31,30.11,14,6,21,0.00
2012-4-9,65.3,59.3,46.0,37.1,25.1,19.3,68,29,18,30.07,29.95,24,16,32,0.00
2012-4-10,50.4,43.7,31.2,24.9,20.5,16.3,73,41,29,30.16,30.08,22,13,31,0.00
2012-4-11,55.5,46.2,29.7,30.2,26.1,23.4,77,46,33,30.31,30.27,7,2,19,0.00
2012-4-12,61.9,50.6,27.3,31.7,28.6,23.5,92,46,28,30.33,30.16,5,1,11,0.00
2012-4-13,62.9,57.2,40.6,40.7,34.0,27.9,69,43,28,30.22,30.06,13,3,23,0.00
2012-4-14,61.5,58.2,54.3,59.3,55.3,46.9,98,90,76,29.99,29.80,9,4,14,0.00
2012-4-15,77.0,70.7,62.9,64.3,62.3,58.1,92,75,65,29.78,29.62,22,13,35,0.00
2012-4-16,58.2,53.7,46.5,51.9,45.5,41.6,86,74,61,30.21,29.67,24,15,33,0.00
2012-4-17,62.1,54.5,40.5,43.6,38.8,33.8,96,57,36,30.40,30.29,10,3,16,0.00
2012-4-18,72.7,63.6,41.8,47.7,45.0,37.9,87,52,38,30.26,29.98,14,8,20,0.00
2012-4-19,79.0,69.9,57.7,50.7,46.4,39.6,69,45,27,30.00,29.70,16,11,27,0.00
2012-4-20,57.6,47.2,43.2,54.0,44.6,38.2,96,91,83,29.98,29.66,13,5,21,0.00
2012-4-21,54.5,48.2,39.6,40.4,36.5,30.7,89,65,45,30.06,29.99,5,1,14,0.00
2012-4-22,53.0,49.4,41.0,38.6,32.6,24.6,77,53,41,30.09,30.00,8,2,20,0.00
2012-4-23,60.6,54.3,40.5,32.1,27.7,21.7,65,37,28,30.06,29.87,14,6,25,0.00
2012-4-24,61.2,55.2,34.6,43.0,29.8,19.3,85,41,23,29.84,29.71,8,3,14,0.00
2012-4-25,73.5,63.9,46.7,58.3,51.6,42.7,90,66,42,29.76,29.58,3,0,11,0.00
2012-4-26,63.2,54.9,39.8,51.4,44.9,27.4,97,70,56,30.14,29.70,7,4,20,0.00
2012-4-27,57.8,50.6,36.2,32.1,23.8,18.1,68,36,22,30.30,30.07,6,3,16,0.00
2012-4-28,48.7,45.4,41.2,43.5,41.4,39.6,94,86,76,30.19,30.01,6,4,23,0.00
2012-4-29,58.3,52.0,42.6,51.5,46.9,37.2,96,83,70,30.25,30.05,7,2,17,0.00
2012-4-30,65.3,61.1,53.7,63.5,59.7,53.1,99,95,91,30.00,29.90,8,4,13,0.00
2012-5-1,68.6,61.0,52.1,66.1,59.3,50.4,98,94,90,30.04,29.80,4,1,9,0.00
2012-5-2,80.8,74.8,65.2,70.1,66.9,62.5,91,77,63,29.94,29.83,18,11,25,0.00
2012-5-3,84.9,80.0,70.2,71.7,68.4,65.0,86,68,54,29.95,29.81,17,12,27,0.00
2012-5-4,82.6,73.4,54.1,67.9,62.0,52.4,95,69,48,29.95,29.84,5,2,9,0.00
2012-5-5,72.6,63.1,57.2,65.3,60.6,56.9,99,92,78,30.00,29.95,2,0,7,0.00
2012-5-6,84.3,75.1,63.2,71.3,66.0,58.3,89,74,63,29.98,29.81,7,1,13,0.00
2012-5-7,66.6,63.1,59.6,63.5,60.9,57.8,95,93,89,29.88,29.83,2,0,4,0.00
2012-5-8,67.8,62.9,53.8,57.3,52.3,48.9,94,70,52,29.91,29.87,12,6,19,0.00
2012-5-9,64.0,57.5,49.0,54.0,50.5,43.9,93,78,62,29.97,29.89,12,5,19,0.00
2012-5-10,68.2,60.4,44.1,52.0,44.3,36.5,95,58,38,30.04,29.99,9,3,14,0.00
2012-5-11,77.2,70.9,55.5,49.4,44.8,40.6,66,40,28,30.15,30.09,9,6,14,0.00
2012-5-12,70.3,62.8,52.5,59.7,52.6,43.9,77,70,58,30.24,30.18,3,1,6,0.00
2012-5-13,73.1,64.7,49.1,57.4,50.3,36.6,83,60,43,30.22,30.09,4,1,13,0.00
2012-5-14,78.1,69.5,48.0,48.3,40.1,34.1,81,38,21,30.13,30.00,3,1,9,0.00
2012-5-15,83.8,76.8,58.1,48.6,43.3,36.1,58,32,19,30.01,29.84,10,6,15,0.00
2012-5-16,66.7,61.6,53.4,45.5,38.6,31.0,72,44,31,30.11,29.99,5,2,13,0.00
2012-5-17,75.5,71.8,59.3,44.9,41.3,37.8,58,34,26,30.16,30.04,4,1,14,0.00
2012-5-18,84.8,74.5,54.4,52.2,43.8,37.0,66,36,19,30.10,29.96,2,1,7,0.00
2012-5-19,91.7,84.4,66.5,65.2,58.1,53.8,75,43,28,30.04,29.94,10,4,17,0.00
2012-5-20,92.1,83.8,65.8,64.7,60.5,53.7,89,49,28,30.05,29.90,14,9,22,0.00
2012-5-21,65.1,60.2,53.4,56.3,51.4,45.8,90,73,55,30.14,30.04,7,1,14,0.00
2012-5-22,70.8,63.2,46.5,50.9,46.1,40.4,93,56,39,30.09,29.92,1,0,4,0.00
2012-5-23,81.9,73.5,51.3,53.8,48.8,43.0,85,44,26,29.92,29.76,0,0,1,0.00
2012-5-24,87.3,80.2,63.8,62.2,58.4,52.3,77,49,36,29.80,29.59,14,5,27,0.00
2012-5-25,86.9,77.0,68.4,61.8,55.7,49.8,78,50,29,30.03,29.87,8,2,11,0.00
2012-5-26,92.6,83.5,67.9,71.0,65.2,53.5,67,55,44,30.10,29.94,6,2,13,0.00
2012-5-27,96.2,88.3,74.4,67.2,62.2,55.3,78,44,28,29.97,29.83,9,5,16,0.00
2012-5-28,92.9,86.7,72.8,66.4,61.6,55.4,74,45,29,29.85,29.69,22,10,32,0.03
2012-5-29,84.8,77.1,64.5,55.9,49.6,42.6,64,40,23,29.85,29.78,17,7,24,0.00
2012-5-30,72.5,68.0,53.6,51.2,44.8,40.3,75,44,32,29.90,29.86,15,10,24,0.00
2012-5-31,56.7,53.4,50.6,51.1,47.5,40.7,96,82,57,29.97,29.80,8,5,16,0.00
2012-6-1,64.4,57.4,50.6,50.8,48.1,42.9,97,73,48,29.82,29.79,13,6,20,0.00
2012-6-2,70.3,65.2,54.4,55.1,52.8,49.0,82,65,53,29.83,29.77,17,12,22,0.00
2012-6-3,80.2,73.6,58.3,59.8,53.3,47.7,92,52,35,29.88,29.79,10,7,16,0.00
2012-6-4,78.8,70.6,61.5,61.8,56.1,48.2,91,64,39,29.88,29.83,7,2,10,0.00
2012-6-5,73.0,68.8,59.2,57.0,52.6,48.0,79,57,42,30.00,29.94,6,4,10,0.00
2012-6-6,76.5,68.4,51.0,55.2,51.1,49.1,97,56,39,30.09,30.02,5,2,10,0.00
2012-6-7,81.9,74.8,59.7,55.8,48.6,42.0,75,42,26,30.14,30.03,5,2,10,0.00
2012-6-8,86.0,78.1,54.5,55.2,51.1,47.0,90,42,28,30.09,29.92,8,5,12,0.00
2012-6-9,87.5,79.2,62.8,56.8,54.0,50.4,72,44,28,29.97,29.85,12,6,20,0.00
2012-6-10,88.7,81.1,66.3,64.0,61.6,59.2,79,53,41,29.96,29.86,10,5,18,0.00
2012-6-11,84.4,79.9,72.2,71.5,69.0,64.2,84,70,56,29.89,29.79,16,9,21,0.00
2012-6-12,78.2,73.3,62.4,52.8,48.0,44.0,65,42,32,30.10,29.99,12,7,18,0.00
2012-6-13,75.1,69.6,53.9,51.4,48.5,43.9,83,48,35,30.19,30.08,5,3,9,0.00
2012-6-14,85.6,77.8,58.9,57.0,54.0,50.0,73,45,32,30.12,30.00,5,2,11,0.00
2012-6-15,90.5,83.5,66.7,60.3,56.1,51.9,68,41,28,30.08,30.00,7,2,11,0.00
2012-6-16,83.2,76.5,70.0,69.8,65.6,61.3,75,69,64,30.04,30.01,11,6,12,0.00
2012-6-17,81.9,77.5,72.2,71.3,67.9,61.2,90,73,50,29.91,29.82,8,6,13,0.00
2012-6-18,87.9,83.1,73.6,74.9,71.1,67.7,86,68,54,29.81,29.70,20,14,28,0.00
2012-6-19,88.7,83.2,72.1,75.7,70.6,65.6,82,66,52,29.97,29.89,15,10,21,0.00
2012-6-20,88.2,83.0,70.7,71.5,67.0,61.6,82,60,42,30.03,29.90,15,11,23,0.00
2012-6-21,81.2,77.4,69.3,70.8,67.9,63.1,92,73,57,29.94,29.89,12,7,15,0.00
2012-6-22,84.2,78.0,63.8,65.4,61.3,56.0,93,58,40,30.01,29.93,6,3,9,0.00
2012-6-23,85.1,78.8,63.3,70.7,63.9,56.8,89,62,41,30.02,29.96,5,2,7,0.00
2012-6-24,89.1,80.7,69.3,73.2,67.9,63.9,94,67,48,29.98,29.88,7,3,10,0.00
2012-6-25,78.5,73.0,62.8,56.8,53.2,49.3,80,51,40,30.03,29.98,7,4,12,0.00
2012-6-26,81.1,73.7,60.8,63.3,57.5,53.2,86,59,40,30.08,29.92,4,2,8,0.00
2012-6-27,88.2,80.2,62.4,62.2,58.7,53.6,86,49,37,30.00,29.79,13,9,19,0.00
2012-6-28,98.7,90.6,72.6,80.4,75.2,61.4,79,61,52,29.84,29.75,11,8,18,0.00
2012-6-29,91.9,83.7,76.1,79.8,74.2,67.3,96,74,52,29.90,29.75,11,2,12,0.00
2012-6-30,83.4,79.6,71.0,76.3,73.8,69.2,96,83,74,29.86,29.78,9,4,11,0.00
2012-7-1,87.5,80.9,73.4,78.7,73.8,69.3,98,80,70,29.97,29.88,5,2,9,0.00
2012-7-2,94.9,86.2,69.5,82.0,77.1,68.9,98,76,55,29.98,29.88,6,2,9,0.00
2012-7-3,93.6,87.9,74.8,81.5,76.1,70.3,86,69,55,29.94,29.80,7,5,10,0.00
2012-7-4,96.5,91.5,78.6,82.3,78.8,75.3,91,67,52,29.89,29.82,7,4,10,0.00
2012-7-5,97.0,88.9,74.7,82.0,76.4,71.2,89,68,48,29.93,29.86,5,3,7,0.00
2012-7-6,98.7,92.2,76.4,83.6,78.5,72.6,88,66,47,29.95,29.88,6,-4,9,0.00
2012-7-7,100.5,89.1,73.7,83.2,77.1,69.5,90,69,47,29.96,29.85,6,3,9,0.00
2012-7-8,81.9,75.8,70.7,73.2,70.1,61.5,96,84,51,30.04,29.97,6,3,10,0.00
2012-7-9,90.3,80.8,65.0,71.5,66.6,62.7,95,64,44,30.04,29.96,5,2,7,0.00
2012-7-10,85.5,79.1,66.8,68.4,64.2,58.5,92,61,47,30.07,30.03,5,3,9,0.00
2012-7-11,88.4,83.0,70.2,67.4,64.4,61.4,81,54,44,30.11,30.02,5,2,8,0.00
2012-7-12,90.8,82.9,65.8,69.6,65.5,58.8,83,58,41,30.07,29.99,6,2,9,0.00
2012-7-13,92.8,84.2,71.0,73.7,70.8,66.9,87,66,46,30.06,29.95,7,3,10,0.00
2012-7-14,88.3,77.5,69.9,75.7,71.3,67.2,98,82,58,30.07,29.97,11,2,21,0.00
2012-7-15,89.9,80.7,68.8,78.9,74.1,67.9,97,81,60,30.06,29.95,6,3,8,0.00
2012-7-16,92.3,83.0,72.1,81.1,75.2,69.7,93,78,62,30.01,29.83,7,4,11,0.00
2012-7-17,94.3,84.9,74.2,82.2,76.9,71.7,93,78,58,29.86,29.77,6,4,9,0.00
2012-7-18,95.9,85.1,76.2,83.7,76.9,73.3,93,78,54,29.89,29.78,6,2,9,0.00
2012-7-19,80.6,75.7,71.5,75.0,71.2,69.6,95,86,80,29.93,29.83,11,4,12,0.00
2012-7-21,87.3,79.6,74.3,73.2,71.1,69.0,88,76,55,30.04,30.01,2,0,3,0.00
2012-7-22,91.9,83.8,71.8,79.3,73.2,67.0,85,71,55,30.11,29.99,5,3,8,0.00
2012-7-23,93.2,88.1,79.0,83.0,77.6,70.0,80,71,61,29.97,29.87,10,5,13,0.00
2012-7-24,86.4,81.0,74.0,77.3,73.4,68.2,89,78,69,29.95,29.87,9,2,13,0.00
2012-7-25,95.9,87.2,69.4,82.5,76.1,68.2,96,71,53,29.85,29.63,9,6,18,0.00
2012-7-26,85.1,79.8,71.0,76.8,73.9,67.6,94,82,66,29.76,29.67,10,6,14,0.00
2012-7-27,84.5,78.4,67.6,74.5,68.6,64.2,94,73,51,29.94,29.81,11,6,16,0.00
2012-7-28,84.0,75.8,64.9,69.4,65.6,62.6,97,73,52,30.09,30.00,5,2,9,0.00
2012-7-29,86.0,78.1,60.5,69.5,66.2,59.4,98,68,51,30.11,29.96,6,2,10,0.00
2012-7-30,91.8,85.1,69.2,74.3,70.7,63.5,87,63,51,29.96,29.85,6,2,9,0.00
2012-7-31,88.6,77.9,68.8,78.5,71.0,66.2,95,80,67,29.93,29.84,11,4,13,0.00
2012-8-1,88.4,80.5,64.1,72.6,69.3,63.2,99,70,52,29.95,29.84,3,1,8,0.00
2012-8-2,89.6,83.4,71.3,74.7,68.4,64.0,80,62,46,29.89,29.75,4,2,9,0.00
2012-8-3,92.9,81.5,65.3,75.3,71.3,63.8,98,73,52,29.88,29.81,5,1,8,0.00
2012-8-4,93.5,82.6,71.3,79.8,76.0,70.0,96,82,61,29.88,29.73,13,3,14,0.00
2012-8-5,84.4,79.3,70.6,69.5,67.1,63.4,95,67,52,30.08,30.00,9,6,18,0.00
2012-8-6,87.0,74.2,57.1,70.1,62.5,56.2,98,69,41,30.16,29.99,4,1,9,0.00
2012-8-7,92.8,66.9,61.3,69.1,34.9,-99.9,97,49,38,29.99,-32.77,7,-183,11,0.00
2012-8-8,87.3,79.0,67.5,75.6,71.7,64.5,91,79,61,29.95,29.89,6,2,8,0.00
2012-8-9,81.4,74.5,64.9,71.9,69.0,64.0,98,84,66,29.88,29.75,5,2,7,0.00
2012-8-10,78.1,71.1,61.9,65.5,60.3,52.9,98,71,51,29.93,29.83,9,5,22,0.00
2012-8-11,80.8,71.0,52.5,60.4,55.9,50.8,94,62,39,29.99,29.93,10,5,14,0.00
2012-8-12,78.1,71.4,55.4,64.1,60.8,54.8,99,71,50,30.04,29.95,5,2,7,0.00
2012-8-13,66.4,65.0,62.9,65.2,64.0,62.0,98,97,95,29.95,29.90,5,3,8,0.00
2012-8-14,82.6,74.1,62.8,71.3,65.2,61.2,98,76,49,29.97,29.87,7,2,9,0.00
2012-8-15,87.0,79.3,61.5,69.1,65.0,59.5,94,64,43,29.97,29.87,6,3,9,0.00
2012-8-16,72.5,68.8,65.7,66.9,65.3,61.8,97,89,75,29.98,29.72,14,6,19,0.00
2012-8-17,76.0,68.7,54.2,61.2,58.2,53.6,98,71,50,30.01,29.97,6,3,10,0.00
2012-8-18,77.4,68.1,49.8,58.6,54.3,49.0,99,64,44,30.03,29.91,4,2,7,0.00
2012-8-19,69.5,60.9,55.8,59.1,56.6,53.9,96,86,66,29.96,29.91,2,0,4,0.00
2012-8-20,78.4,68.6,55.9,66.6,60.6,55.1,97,77,51,29.98,29.92,5,2,14,0.00
2012-8-21,80.8,72.0,49.6,63.4,58.0,48.8,99,64,40,30.08,30.04,4,2,7,0.00
2012-8-22,85.3,76.5,52.3,62.7,59.1,51.2,98,57,38,30.13,30.02,6,2,10,0.00
2012-8-23,90.6,80.6,61.0,66.2,62.1,57.0,87,56,37,30.10,30.00,7,3,11,0.00
2012-8-24,92.7,84.0,61.6,68.3,64.0,58.0,89,54,35,30.04,29.94,7,3,11,0.00
2012-8-25,92.6,83.8,64.0,67.0,64.2,61.6,93,54,38,30.05,29.97,9,2,15,0.00
2012-8-26,79.3,75.0,70.1,73.6,70.0,66.0,97,85,71,30.04,29.93,11,5,16,0.00
2012-8-27,87.3,80.4,68.4,74.4,69.4,63.8,99,72,46,30.05,29.98,6,3,12,0.00
2012-8-28,86.1,79.4,59.9,71.1,64.1,59.3,98,62,45,30.12,30.00,3,1,7,0.00
2012-8-29,87.2,78.9,64.0,68.1,65.3,61.6,92,64,49,30.08,29.97,4,1,7,0.00
2012-8-30,90.4,82.0,63.7,67.1,63.6,60.1,90,56,37,30.05,29.95,7,4,13,0.00
2012-8-31,89.6,79.9,68.8,77.1,73.1,63.4,92,80,63,30.07,29.97,10,4,14,0.00
2012-9-1,83.7,77.1,73.9,77.9,74.9,73.3,99,93,81,30.00,29.87,6,3,10,0.00
2012-9-2,81.8,77.4,74.4,77.0,74.9,72.9,98,92,83,29.84,29.78,7,4,13,0.00
2012-9-3,89.6,81.2,72.1,77.4,74.6,71.4,98,82,64,29.88,29.81,5,2,10,0.00
2012-9-4,92.4,82.4,69.8,76.2,72.9,69.2,99,76,52,29.88,29.79,4,1,6,0.00
2012-9-5,83.9,75.8,66.9,72.5,68.1,64.6,98,78,62,29.92,29.74,12,4,19,0.00
2012-9-6,87.3,80.1,67.9,71.0,67.1,59.6,99,67,40,29.92,29.87,6,3,10,0.00
2012-9-7,79.8,68.8,63.3,70.4,65.6,61.5,97,90,67,29.95,29.71,14,4,19,0.00
2012-9-8,73.6,67.2,55.7,56.2,53.5,50.6,94,63,45,29.92,29.84,10,7,18,0.00
2012-9-9,75.2,67.6,57.8,58.9,56.8,53.7,96,70,48,30.12,29.96,7,4,14,0.00
2012-9-10,79.0,67.0,49.2,56.8,53.5,47.8,98,65,40,30.23,30.10,6,2,12,0.00
2012-9-11,84.1,75.6,57.2,59.8,57.9,52.6,86,56,40,30.19,30.07,12,8,20,0.00
2012-9-12,87.3,79.6,60.2,63.1,59.6,55.9,88,53,35,30.18,30.08,11,7,19,0.00
2012-9-13,83.5,75.3,62.7,66.1,63.2,58.1,85,68,46,30.25,30.14,6,4,11,0.00
2012-9-14,72.9,62.8,54.6,59.5,56.0,52.2,98,80,52,30.35,30.28,4,2,7,0.00
2012-9-15,80.1,67.9,50.9,56.6,50.5,46.2,92,59,31,30.33,30.15,7,2,11,0.00
2012-9-16,80.4,67.5,51.6,57.3,53.7,50.3,96,65,36,30.14,29.97,8,2,9,0.00
2012-9-17,79.3,70.2,56.0,65.8,61.1,54.3,96,75,51,29.94,29.72,9,3,11,0.00
2012-9-18,65.2,56.1,45.4,52.6,43.5,35.9,94,66,35,30.05,29.78,12,6,20,0.00
2012-9-19,73.4,65.1,41.7,46.0,43.2,39.5,92,47,33,30.12,29.90,16,11,25,0.00
2012-9-20,74.8,66.4,54.7,53.7,44.2,38.8,87,48,28,29.93,29.88,9,5,16,0.00
2012-9-21,68.5,59.0,48.3,54.4,48.4,43.5,92,70,44,29.95,29.75,9,4,13,0.00
2012-9-22,60.3,53.8,45.2,50.9,40.7,34.0,99,63,45,30.18,29.88,19,8,32,0.00
2012-9-23,64.2,58.3,44.9,44.2,37.3,31.0,96,48,29,30.29,30.22,10,7,18,0.00
2012-9-24,72.7,62.2,34.5,42.1,36.6,31.9,93,42,26,30.25,29.97,12,8,23,0.00
2012-9-25,76.6,67.3,57.8,64.8,60.8,49.2,93,80,65,29.92,29.83,11,6,18,0.00
2012-9-26,76.7,70.2,63.3,67.1,64.1,53.3,97,82,68,30.06,29.95,8,4,12,0.00
2012-9-27,72.4,62.9,54.1,52.7,49.7,45.0,85,64,38,30.18,30.11,7,3,13,0.00
2012-9-28,71.3,62.3,44.5,57.0,52.4,43.3,97,72,51,30.15,30.08,6,3,14,0.00
2012-9-29,78.3,64.1,44.0,52.7,47.3,43.0,99,60,29,30.14,29.94,9,5,15,0.00
2012-9-30,71.1,65.3,54.4,55.6,49.6,46.1,88,58,43,29.96,29.88,6,3,11,0.00
2012-10-1,65.7,60.2,47.8,50.2,48.2,45.6,93,66,53,29.91,29.79,6,3,13,0.00
2012-10-2,68.6,61.8,54.9,57.7,52.8,46.9,94,74,46,29.88,29.80,7,3,14,0.00
2012-10-3,65.5,60.7,58.7,61.6,59.2,58.1,98,95,85,30.04,29.92,10,5,13,0.00
2012-10-4,82.1,66.8,52.3,63.8,57.4,50.6,96,75,46,30.14,30.00,19,11,24,0.00
2012-10-5,47.0,45.0,39.3,43.4,40.4,36.3,91,84,73,30.19,30.10,9,6,12,0.00
2012-10-6,50.6,44.8,34.3,36.0,34.1,31.1,88,67,55,30.22,30.16,11,8,19,0.00
2012-10-7,50.8,45.3,35.6,35.3,31.2,27.7,87,59,41,30.22,30.17,11,7,15,0.00
2012-10-8,58.8,51.1,35.4,36.3,34.0,29.5,79,54,39,30.22,30.07,14,10,21,0.00
2012-10-9,65.8,57.8,41.2,46.5,44.0,37.3,87,62,46,30.05,29.86,20,14,29,0.00
2012-10-10,53.2,47.4,37.4,38.3,33.9,29.3,94,62,44,30.18,30.05,20,12,29,0.00
2012-10-11,65.1,54.8,37.9,43.8,37.2,32.2,81,54,37,30.23,30.10,19,13,29,0.00
2012-10-12,58.2,52.9,44.5,40.4,33.6,28.7,82,49,33,30.43,30.29,8,4,19,0.00
2012-10-13,68.9,60.0,50.8,65.2,56.1,41.6,98,87,68,30.17,29.85,15,9,25,0.00
2012-10-14,72.8,65.6,52.9,64.7,60.8,50.6,93,85,70,29.74,29.49,28,21,38,0.00
2012-10-15,61.4,52.8,42.9,45.4,43.0,41.1,94,71,51,29.97,29.86,14,8,20,0.00
2012-10-16,71.8,62.7,40.5,54.5,49.6,38.9,95,64,50,29.93,29.61,12,6,26,0.00
2012-10-17,68.0,62.6,55.1,59.3,56.3,50.2,95,80,67,29.59,29.36,24,12,33,0.00
2012-10-18,57.0,50.4,44.9,45.8,42.9,39.5,89,76,54,29.58,29.41,20,13,30,0.00
2012-10-19,50.4,48.3,46.6,48.7,46.7,45.0,98,94,89,29.68,29.47,14,8,20,0.00
2012-10-20,57.7,50.0,42.4,48.4,45.0,41.9,98,84,62,29.95,29.79,9,6,12,0.00
2012-10-21,72.6,60.7,42.0,55.0,50.3,41.2,98,71,52,30.05,29.96,7,3,14,0.00
2012-10-22,68.0,65.1,61.1,64.3,61.1,57.0,96,87,71,30.02,29.90,12,5,18,0.00
2012-10-23,71.4,67.1,64.4,65.1,63.0,61.5,91,87,80,29.95,29.90,10,4,18,0.03
2012-10-24,78.6,72.4,61.7,68.2,65.1,58.4,90,78,70,29.98,29.88,12,8,19,0.00
2012-10-25,78.8,72.4,45.6,66.0,62.4,43.7,94,72,64,30.01,29.72,20,14,29,0.00
2012-10-26,51.7,44.5,38.4,36.8,34.9,32.3,87,70,50,30.34,30.24,11,4,16,0.00
2012-10-27,51.7,48.1,41.8,39.4,36.8,34.4,80,65,56,30.31,30.24,8,4,11,0.00
2012-10-28,50.7,46.4,35.7,38.0,35.4,33.3,94,67,53,30.30,30.23,9,4,16,0.00
2012-10-29,53.4,44.9,33.4,40.5,34.9,30.0,94,70,46,30.28,30.11,14,7,24,0.00
2012-10-30,47.5,43.6,37.5,33.4,32.0,28.9,77,64,57,29.90,29.80,15,10,22,0.00
2012-10-31,49.7,41.5,31.9,36.1,32.1,27.9,85,70,58,29.90,29.85,16,11,21,0.00
2012-11-1,54.1,47.0,31.9,36.2,29.3,22.9,83,53,31,29.96,29.87,13,6,14,0.00
2012-11-2,51.3,44.5,30.1,36.7,31.2,26.6,92,62,39,30.12,30.05,8,4,10,0.00
2012-11-3,44.0,39.4,35.3,35.9,34.6,32.6,91,83,72,30.24,30.18,7,2,11,0.00
2012-11-4,49.2,43.4,34.5,36.6,32.9,28.2,95,68,44,30.28,30.20,7,3,11,0.00
2012-11-5,47.1,40.7,26.4,35.4,32.0,25.2,97,73,57,30.24,30.16,6,2,10,0.00
2012-11-6,44.7,38.8,26.3,39.6,35.2,24.8,96,87,71,30.11,29.94,7,2,10,0.00
2012-11-7,46.4,43.8,40.1,42.3,41.2,39.3,98,91,82,30.20,30.01,4,1,7,0.00
2012-11-8,48.4,44.0,39.7,41.5,38.6,36.3,95,82,69,30.27,30.14,8,3,12,0.00
2012-11-9,59.4,51.7,39.1,50.1,45.4,36.8,92,79,68,30.15,30.00,11,4,16,0.00
2012-11-10,72.8,65.5,53.3,57.5,53.0,47.9,83,65,49,30.03,29.92,15,10,24,0.00
2012-11-11,69.0,63.2,53.1,56.4,53.0,48.7,96,70,60,29.99,29.81,22,14,35,0.00
2012-11-12,37.9,34.0,30.1,29.0,27.3,24.8,89,77,62,30.35,30.17,17,12,25,0.00
2012-11-13,41.1,34.7,24.0,29.0,26.2,22.0,93,72,56,30.58,30.51,7,3,9,0.00
2012-11-14,45.2,38.6,28.9,31.8,29.6,26.0,90,71,56,30.60,30.45,6,2,8,0.00
2012-11-15,47.3,37.9,24.7,35.0,31.4,23.5,97,79,55,30.46,30.38,4,1,6,0.00
2012-11-16,54.6,44.0,26.3,36.9,33.6,24.8,97,69,47,30.53,30.48,4,1,7,0.00
2012-11-17,56.3,44.2,27.8,39.3,34.9,25.8,94,72,48,30.60,30.49,6,2,9,0.00
2012-11-18,60.4,49.3,33.1,40.1,36.4,30.8,91,63,42,30.48,30.36,3,1,7,0.00
2012-11-19,58.9,52.7,41.4,43.1,41.3,34.7,78,66,53,30.34,30.16,8,4,11,0.00
2012-11-20,57.5,52.5,43.7,50.0,46.8,41.8,93,81,74,30.20,30.10,5,2,9,0.00
2012-11-21,62.4,51.5,34.8,52.0,46.4,34.0,99,84,66,30.29,30.18,8,4,12,0.00
2012-11-22,62.5,56.7,45.2,51.3,49.2,43.6,94,77,64,30.10,29.88,18,12,24,0.00
2012-11-23,37.1,31.5,23.2,33.9,24.3,19.2,89,74,65,30.28,30.00,25,16,30,0.00
2012-11-24,30.0,28.5,27.4,25.8,22.4,20.1,84,77,72,30.33,30.08,9,6,13,0.00
2012-11-25,47.5,41.1,30.1,31.6,30.0,25.8,84,65,52,30.08,29.92,10,6,12,0.00
2012-11-26,36.7,34.5,30.4,26.4,23.9,20.8,85,65,54,30.39,30.23,8,4,15,0.00
2012-11-27,35.5,29.8,17.2,21.6,17.5,13.7,87,61,44,30.50,30.35,7,3,10,0.00
2012-11-28,46.9,39.4,24.7,29.3,26.2,20.6,86,60,44,30.46,30.36,8,4,12,0.00
2012-11-29,52.9,42.6,29.9,38.1,33.9,25.4,84,72,57,30.33,30.15,14,6,18,0.00
2012-11-30,58.6,47.8,36.8,41.0,37.3,32.7,86,68,50,30.16,30.07,11,4,14,0.00
2012-12-1,62.7,54.9,40.1,54.0,49.5,38.5,95,83,73,30.16,29.98,14,7,24,0.00
2012-12-2,63.1,59.2,53.8,58.9,56.2,52.7,97,90,83,30.06,29.95,10,4,13,0.00
2012-12-3,72.9,66.7,60.3,63.6,60.8,58.5,99,82,68,30.00,29.83,22,13,27,0.00
2012-12-4,55.9,49.2,39.8,49.7,43.4,36.0,97,82,60,30.24,30.02,9,3,14,0.00
2012-12-5,44.3,38.0,31.3,34.5,31.4,27.0,86,77,67,30.45,30.35,4,2,10,0.00
2012-12-6,46.8,41.7,32.9,41.9,37.5,30.4,91,85,79,30.19,29.97,6,3,10,0.00
2012-12-7,47.4,45.3,43.1,45.7,44.1,42.1,98,96,92,29.98,29.87,4,1,7,0.00
2012-12-8,45.0,42.0,37.7,41.0,39.4,35.7,97,91,82,30.11,29.94,7,3,12,0.00
2012-12-9,48.1,43.3,38.2,47.8,42.3,36.9,99,96,92,29.99,29.74,13,6,19,0.00
2012-12-10,31.7,30.3,29.4,30.4,28.6,27.1,96,93,91,29.99,29.84,13,11,19,0.00
2012-12-11,35.3,29.2,22.5,28.3,25.7,20.8,93,87,74,30.22,30.11,14,6,17,0.00
2012-12-12,44.6,36.4,25.3,33.5,29.6,22.8,90,77,61,30.39,30.32,10,5,13,0.00
2012-12-13,47.5,40.1,31.0,36.0,32.0,27.0,86,73,58,30.37,30.18,16,8,24,0.00
2012-12-14,49.7,41.8,31.1,39.3,35.0,28.0,89,77,63,30.26,30.08,7,2,11,0.00
2012-12-15,52.8,47.4,41.6,50.5,43.7,34.3,96,87,69,30.08,29.63,12,6,17,0.00
2012-12-16,49.8,45.9,41.9,47.3,43.5,38.9,95,91,85,29.71,29.66,12,9,15,0.00
2012-12-17,39.4,38.1,35.5,36.6,35.6,33.7,94,91,87,29.77,29.67,7,3,10,0.00
2012-12-18,45.8,38.7,33.8,42.8,35.8,30.9,94,89,85,29.84,29.63,18,6,20,0.00
2012-12-19,41.7,38.6,35.1,39.3,35.9,33.1,93,90,86,30.10,29.95,8,3,17,0.00
2012-12-20,52.8,45.1,33.0,51.6,43.9,30.8,98,96,91,29.45,29.11,32,10,37,0.00
2012-12-21,29.7,26.3,22.5,25.3,22.2,18.9,88,84,79,30.24,29.89,27,18,33,0.00
2012-12-22,28.6,19.9,15.7,24.9,16.9,13.0,90,88,83,30.32,30.05,8,3,11,0.00
2012-12-23,39.6,32.3,20.9,34.1,29.1,19.4,95,88,78,30.05,29.99,4,2,8,0.00
2012-12-24,34.2,31.3,27.8,31.3,28.7,26.0,93,90,87,29.93,29.88,10,4,12,0.00
2012-12-25,35.8,32.4,30.3,29.1,27.1,26.0,86,81,73,30.34,30.21,5,2,9,0.00
2012-12-26,34.2,32.7,31.7,30.3,28.4,25.8,91,84,78,30.11,29.95,9,4,17,0.00
2012-12-27,32.4,31.0,28.9,29.0,27.8,25.5,91,88,85,30.23,30.17,6,2,8,0.00
2012-12-28,33.3,32.1,30.1,30.6,30.0,28.5,96,92,88,30.15,29.93,2,1,6,0.00
2012-12-29,31.7,26.9,21.7,30.9,24.2,18.5,97,90,85,30.31,29.94,18,13,25,0.00
2012-12-30,38.7,29.2,15.8,30.8,24.9,13.4,92,84,71,30.44,30.22,12,8,18,0.00
2012-12-31,35.8,31.7,25.2,32.5,28.8,22.6,97,89,76,30.15,30.08,13,8,18,0.00
2013-1-1,25.0,18.8,7.1,18.5,13.6,3.4,87,80,73,30.28,30.18,7,3,11,0.00